sensor_id;sensor_type;location;lat;lon;timestamp;temperature;humidity
9730;DHT22;4904;49.152;11.004;2024-02-26T00:00:11;5.00;99.90
9730;DHT22;4904;49.152;11.004;2024-02-26T00:02:38;5.00;99.90
9730;DHT22;4904;49.152;11.004;2024-02-26T00:05:06;5.00;99.90
9730;DHT22;4904;49.152;11.004;2024-02-26T00:07:34;4.90;99.90
9730;DHT22;4904;49.152;11.004;2024-02-26T00:10:01;4.90;99.90
9730;DHT22;4904;49.152;11.004;2024-02-26T00:12:28;4.90;99.90
9730;DHT22;4904;49.152;11.004;2024-02-26T00:14:54;4.80;99.90
9730;DHT22;4904;49.152;11.004;2024-02-26T00:17:25;4.80;99.90
9730;DHT22;4904;49.152;11.004;2024-02-26T00:19:52;4.70;99.90
9730;DHT22;4904;49.152;11.004;2024-02-26T00:22:19;4.70;99.90
9730;DHT22;4904;49.152;11.004;2024-02-26T00:24:45;4.70;99.90
9730;DHT22;4904;49.152;11.004;2024-02-26T00:27:12;4.70;99.90
9730;DHT22;4904;49.152;11.004;2024-02-26T00:29:39;4.70;99.90
9730;DHT22;4904;49.152;11.004;2024-02-26T00:32:06;4.70;99.90
9730;DHT22;4904;49.152;11.004;2024-02-26T00:34:35;4.70;99.90
9730;DHT22;4904;49.152;11.004;2024-02-26T00:37:02;4.60;99.90
9730;DHT22;4904;49.152;11.004;2024-02-26T00:39:29;4.60;99.90
9730;DHT22;4904;49.152;11.004;2024-02-26T00:41:56;4.60;99.90
9730;DHT22;4904;49.152;11.004;2024-02-26T00:44:23;4.50;99.90
9730;DHT22;4904;49.152;11.004;2024-02-26T00:46:49;4.50;99.90
9730;DHT22;4904;49.152;11.004;2024-02-26T00:49:16;4.50;99.90
9730;DHT22;4904;49.152;11.004;2024-02-26T00:51:45;4.50;99.90
9730;DHT22;4904;49.152;11.004;2024-02-26T00:54:11;4.50;99.90
9730;DHT22;4904;49.152;11.004;2024-02-26T00:56:38;4.50;99.90
9730;DHT22;4904;49.152;11.004;2024-02-26T00:59:05;4.50;99.90
9730;DHT22;4904;49.152;11.004;2024-02-26T01:01:32;4.40;99.90
9730;DHT22;4904;49.152;11.004;2024-02-26T01:04:00;4.50;99.90
9730;DHT22;4904;49.152;11.004;2024-02-26T01:06:27;4.40;99.90
9730;DHT22;4904;49.152;11.004;2024-02-26T01:08:55;4.60;99.90
9730;DHT22;4904;49.152;11.004;2024-02-26T01:11:22;4.30;99.90
9730;DHT22;4904;49.152;11.004;2024-02-26T01:13:49;4.30;99.90
9730;DHT22;4904;49.152;11.004;2024-02-26T01:16:18;4.30;99.90
9730;DHT22;4904;49.152;11.004;2024-02-26T01:18:46;4.30;99.90
9730;DHT22;4904;49.152;11.004;2024-02-26T01:21:13;4.20;99.90
9730;DHT22;4904;49.152;11.004;2024-02-26T01:23:40;4.40;99.90
9730;DHT22;4904;49.152;11.004;2024-02-26T01:26:09;4.20;99.90
9730;DHT22;4904;49.152;11.004;2024-02-26T01:28:36;4.20;99.90
9730;DHT22;4904;49.152;11.004;2024-02-26T01:31:03;4.20;99.90
9730;DHT22;4904;49.152;11.004;2024-02-26T01:33:31;4.00;99.90
9730;DHT22;4904;49.152;11.004;2024-02-26T01:35:58;4.00;99.90
9730;DHT22;4904;49.152;11.004;2024-02-26T01:38:26;4.10;99.90
9730;DHT22;4904;49.152;11.004;2024-02-26T01:40:53;4.00;99.90
9730;DHT22;4904;49.152;11.004;2024-02-26T01:43:22;4.00;99.90
9730;DHT22;4904;49.152;11.004;2024-02-26T01:45:48;4.10;99.90
9730;DHT22;4904;49.152;11.004;2024-02-26T01:48:15;4.20;99.90
9730;DHT22;4904;49.152;11.004;2024-02-26T01:50:42;4.30;99.90
9730;DHT22;4904;49.152;11.004;2024-02-26T01:53:09;4.30;99.90
9730;DHT22;4904;49.152;11.004;2024-02-26T01:55:37;4.30;99.90
9730;DHT22;4904;49.152;11.004;2024-02-26T01:58:05;4.40;99.90
9730;DHT22;4904;49.152;11.004;2024-02-26T02:00:33;4.50;99.90
9730;DHT22;4904;49.152;11.004;2024-02-26T02:03:01;4.40;99.90
9730;DHT22;4904;49.152;11.004;2024-02-26T02:05:29;4.40;99.90
9730;DHT22;4904;49.152;11.004;2024-02-26T02:07:56;4.40;99.90
9730;DHT22;4904;49.152;11.004;2024-02-26T02:10:24;4.50;99.90
9730;DHT22;4904;49.152;11.004;2024-02-26T02:12:52;4.50;99.90
9730;DHT22;4904;49.152;11.004;2024-02-26T02:15:19;4.50;99.90
9730;DHT22;4904;49.152;11.004;2024-02-26T02:17:47;4.50;99.90
9730;DHT22;4904;49.152;11.004;2024-02-26T02:20:16;4.50;99.90
9730;DHT22;4904;49.152;11.004;2024-02-26T02:22:45;4.40;99.90
9730;DHT22;4904;49.152;11.004;2024-02-26T02:25:13;4.40;99.90
9730;DHT22;4904;49.152;11.004;2024-02-26T02:27:40;4.50;99.90
9730;DHT22;4904;49.152;11.004;2024-02-26T02:30:08;4.60;99.90
9730;DHT22;4904;49.152;11.004;2024-02-26T02:32:37;4.60;99.90
9730;DHT22;4904;49.152;11.004;2024-02-26T02:35:06;4.70;99.90
9730;DHT22;4904;49.152;11.004;2024-02-26T02:37:33;4.60;99.90
9730;DHT22;4904;49.152;11.004;2024-02-26T02:40:02;4.60;99.90
9730;DHT22;4904;49.152;11.004;2024-02-26T02:42:29;4.70;99.90
9730;DHT22;4904;49.152;11.004;2024-02-26T02:44:56;4.60;99.90
9730;DHT22;4904;49.152;11.004;2024-02-26T02:47:23;4.60;99.90
9730;DHT22;4904;49.152;11.004;2024-02-26T02:49:50;4.50;99.90
9730;DHT22;4904;49.152;11.004;2024-02-26T02:52:17;4.40;99.90
9730;DHT22;4904;49.152;11.004;2024-02-26T02:54:44;4.30;99.90
9730;DHT22;4904;49.152;11.004;2024-02-26T02:57:13;4.30;99.90
9730;DHT22;4904;49.152;11.004;2024-02-26T02:59:40;4.30;99.90
9730;DHT22;4904;49.152;11.004;2024-02-26T03:02:07;4.40;99.90
9730;DHT22;4904;49.152;11.004;2024-02-26T03:04:34;4.50;99.90
9730;DHT22;4904;49.152;11.004;2024-02-26T03:07:01;4.40;99.90
9730;DHT22;4904;49.152;11.004;2024-02-26T03:09:28;4.50;99.90
9730;DHT22;4904;49.152;11.004;2024-02-26T03:11:54;4.60;99.90
9730;DHT22;4904;49.152;11.004;2024-02-26T03:14:23;4.50;99.90
9730;DHT22;4904;49.152;11.004;2024-02-26T03:16:53;4.60;99.90
9730;DHT22;4904;49.152;11.004;2024-02-26T03:19:20;4.40;99.90
9730;DHT22;4904;49.152;11.004;2024-02-26T03:21:47;4.50;99.90
9730;DHT22;4904;49.152;11.004;2024-02-26T03:24:14;4.40;99.90
9730;DHT22;4904;49.152;11.004;2024-02-26T03:26:41;4.40;99.90
9730;DHT22;4904;49.152;11.004;2024-02-26T03:29:07;4.30;99.90
9730;DHT22;4904;49.152;11.004;2024-02-26T03:31:36;4.30;99.90
9730;DHT22;4904;49.152;11.004;2024-02-26T03:34:03;4.40;99.90
9730;DHT22;4904;49.152;11.004;2024-02-26T03:36:31;4.30;99.90
9730;DHT22;4904;49.152;11.004;2024-02-26T03:38:58;4.30;99.90
9730;DHT22;4904;49.152;11.004;2024-02-26T03:41:25;4.40;99.90
9730;DHT22;4904;49.152;11.004;2024-02-26T03:43:52;4.40;99.90
9730;DHT22;4904;49.152;11.004;2024-02-26T03:46:19;4.20;99.90
9730;DHT22;4904;49.152;11.004;2024-02-26T03:48:47;4.20;99.90
9730;DHT22;4904;49.152;11.004;2024-02-26T03:51:14;4.20;99.90
9730;DHT22;4904;49.152;11.004;2024-02-26T03:53:41;4.30;99.90
9730;DHT22;4904;49.152;11.004;2024-02-26T03:56:08;4.40;99.90
9730;DHT22;4904;49.152;11.004;2024-02-26T03:58:37;4.40;99.90
9730;DHT22;4904;49.152;11.004;2024-02-26T04:01:06;4.90;99.90
9730;DHT22;4904;49.152;11.004;2024-02-26T04:03:33;4.50;99.90
9730;DHT22;4904;49.152;11.004;2024-02-26T04:06:02;4.40;99.90
9730;DHT22;4904;49.152;11.004;2024-02-26T04:08:29;4.40;99.90
9730;DHT22;4904;49.152;11.004;2024-02-26T04:10:56;4.50;99.90
9730;DHT22;4904;49.152;11.004;2024-02-26T04:13:23;4.40;99.90
9730;DHT22;4904;49.152;11.004;2024-02-26T04:15:50;4.40;99.90
9730;DHT22;4904;49.152;11.004;2024-02-26T04:18:17;4.40;99.90
9730;DHT22;4904;49.152;11.004;2024-02-26T04:20:44;4.40;99.90
9730;DHT22;4904;49.152;11.004;2024-02-26T04:23:12;4.40;99.90
9730;DHT22;4904;49.152;11.004;2024-02-26T04:25:39;4.50;99.90
9730;DHT22;4904;49.152;11.004;2024-02-26T04:28:05;4.50;99.90
9730;DHT22;4904;49.152;11.004;2024-02-26T04:30:32;4.50;99.90
9730;DHT22;4904;49.152;11.004;2024-02-26T04:32:59;4.40;99.90
9730;DHT22;4904;49.152;11.004;2024-02-26T04:35:26;4.30;99.90
9730;DHT22;4904;49.152;11.004;2024-02-26T04:37:53;4.30;99.90
9730;DHT22;4904;49.152;11.004;2024-02-26T04:40:21;4.30;99.90
9730;DHT22;4904;49.152;11.004;2024-02-26T04:42:48;4.40;99.90
9730;DHT22;4904;49.152;11.004;2024-02-26T04:45:15;4.40;99.90
9730;DHT22;4904;49.152;11.004;2024-02-26T04:47:42;4.40;99.90
9730;DHT22;4904;49.152;11.004;2024-02-26T04:50:09;4.50;99.90
9730;DHT22;4904;49.152;11.004;2024-02-26T04:52:36;4.50;99.90
9730;DHT22;4904;49.152;11.004;2024-02-26T04:55:04;4.50;99.90
9730;DHT22;4904;49.152;11.004;2024-02-26T04:57:32;4.50;99.90
9730;DHT22;4904;49.152;11.004;2024-02-26T04:59:59;4.50;99.90
9730;DHT22;4904;49.152;11.004;2024-02-26T05:02:25;4.50;99.90
9730;DHT22;4904;49.152;11.004;2024-02-26T05:04:52;4.50;99.90
9730;DHT22;4904;49.152;11.004;2024-02-26T05:07:19;4.60;99.90
9730;DHT22;4904;49.152;11.004;2024-02-26T05:09:46;4.60;99.90
9730;DHT22;4904;49.152;11.004;2024-02-26T05:12:15;4.40;99.90
9730;DHT22;4904;49.152;11.004;2024-02-26T05:14:43;4.30;99.90
9730;DHT22;4904;49.152;11.004;2024-02-26T05:17:10;4.30;99.90
9730;DHT22;4904;49.152;11.004;2024-02-26T05:19:37;4.30;99.90
9730;DHT22;4904;49.152;11.004;2024-02-26T05:22:04;4.20;99.90
9730;DHT22;4904;49.152;11.004;2024-02-26T05:24:30;4.30;99.90
9730;DHT22;4904;49.152;11.004;2024-02-26T05:26:57;4.20;99.90
9730;DHT22;4904;49.152;11.004;2024-02-26T05:29:24;4.30;99.90
9730;DHT22;4904;49.152;11.004;2024-02-26T05:31:52;4.40;99.90
9730;DHT22;4904;49.152;11.004;2024-02-26T05:34:20;4.50;99.90
9730;DHT22;4904;49.152;11.004;2024-02-26T05:36:47;4.50;99.90
9730;DHT22;4904;49.152;11.004;2024-02-26T05:39:14;4.60;99.90
9730;DHT22;4904;49.152;11.004;2024-02-26T05:41:41;4.70;99.90
9730;DHT22;4904;49.152;11.004;2024-02-26T05:44:09;4.60;99.90
9730;DHT22;4904;49.152;11.004;2024-02-26T05:46:36;4.70;99.90
9730;DHT22;4904;49.152;11.004;2024-02-26T05:49:04;4.60;99.90
9730;DHT22;4904;49.152;11.004;2024-02-26T05:51:31;4.50;99.90
9730;DHT22;4904;49.152;11.004;2024-02-26T05:53:58;4.40;99.90
9730;DHT22;4904;49.152;11.004;2024-02-26T05:56:25;4.40;99.90
9730;DHT22;4904;49.152;11.004;2024-02-26T05:58:52;4.40;99.90
9730;DHT22;4904;49.152;11.004;2024-02-26T06:01:20;4.40;99.90
9730;DHT22;4904;49.152;11.004;2024-02-26T06:03:47;4.40;99.90
9730;DHT22;4904;49.152;11.004;2024-02-26T06:06:15;4.50;99.90
9730;DHT22;4904;49.152;11.004;2024-02-26T06:08:42;4.50;99.90
9730;DHT22;4904;49.152;11.004;2024-02-26T06:11:09;4.60;99.90
9730;DHT22;4904;49.152;11.004;2024-02-26T06:13:36;4.40;99.90
9730;DHT22;4904;49.152;11.004;2024-02-26T06:16:03;4.40;99.90
9730;DHT22;4904;49.152;11.004;2024-02-26T06:18:30;4.40;99.90
9730;DHT22;4904;49.152;11.004;2024-02-26T06:20:57;4.30;99.90
9730;DHT22;4904;49.152;11.004;2024-02-26T06:23:25;4.40;99.90
9730;DHT22;4904;49.152;11.004;2024-02-26T06:25:52;4.40;99.90
9730;DHT22;4904;49.152;11.004;2024-02-26T06:28:19;4.40;99.90
9730;DHT22;4904;49.152;11.004;2024-02-26T06:30:46;4.40;99.90
9730;DHT22;4904;49.152;11.004;2024-02-26T06:33:13;4.60;99.90
9730;DHT22;4904;49.152;11.004;2024-02-26T06:35:40;4.40;99.90
9730;DHT22;4904;49.152;11.004;2024-02-26T06:38:07;4.40;99.90
9730;DHT22;4904;49.152;11.004;2024-02-26T06:40:36;4.50;99.90
9730;DHT22;4904;49.152;11.004;2024-02-26T06:43:03;4.50;99.90
9730;DHT22;4904;49.152;11.004;2024-02-26T06:45:30;4.50;99.90
9730;DHT22;4904;49.152;11.004;2024-02-26T06:47:56;4.50;99.90
9730;DHT22;4904;49.152;11.004;2024-02-26T06:50:23;4.60;99.90
9730;DHT22;4904;49.152;11.004;2024-02-26T06:52:50;4.50;99.90
9730;DHT22;4904;49.152;11.004;2024-02-26T06:55:17;4.40;99.90
9730;DHT22;4904;49.152;11.004;2024-02-26T06:57:45;4.50;99.90
9730;DHT22;4904;49.152;11.004;2024-02-26T07:00:13;4.60;99.90
9730;DHT22;4904;49.152;11.004;2024-02-26T07:02:42;4.70;99.90
9730;DHT22;4904;49.152;11.004;2024-02-26T07:05:09;4.80;99.90
9730;DHT22;4904;49.152;11.004;2024-02-26T07:07:36;4.90;99.90
9730;DHT22;4904;49.152;11.004;2024-02-26T07:10:03;4.90;99.90
9730;DHT22;4904;49.152;11.004;2024-02-26T07:12:31;4.90;99.90
9730;DHT22;4904;49.152;11.004;2024-02-26T07:14:59;5.00;99.90
9730;DHT22;4904;49.152;11.004;2024-02-26T07:17:26;5.10;99.90
9730;DHT22;4904;49.152;11.004;2024-02-26T07:19:53;5.10;99.90
9730;DHT22;4904;49.152;11.004;2024-02-26T07:22:20;5.20;99.90
9730;DHT22;4904;49.152;11.004;2024-02-26T07:24:46;5.20;99.90
9730;DHT22;4904;49.152;11.004;2024-02-26T07:27:13;5.20;99.90
9730;DHT22;4904;49.152;11.004;2024-02-26T07:29:43;5.10;99.90
9730;DHT22;4904;49.152;11.004;2024-02-26T07:32:11;5.10;99.90
9730;DHT22;4904;49.152;11.004;2024-02-26T07:34:38;5.20;99.90
9730;DHT22;4904;49.152;11.004;2024-02-26T07:37:07;5.20;99.90
9730;DHT22;4904;49.152;11.004;2024-02-26T07:39:34;5.20;99.90
9730;DHT22;4904;49.152;11.004;2024-02-26T07:42:01;5.30;99.90
9730;DHT22;4904;49.152;11.004;2024-02-26T07:44:27;5.30;99.90
9730;DHT22;4904;49.152;11.004;2024-02-26T07:46:54;5.50;99.90
9730;DHT22;4904;49.152;11.004;2024-02-26T07:49:23;5.60;99.90
9730;DHT22;4904;49.152;11.004;2024-02-26T07:51:50;5.50;99.90
9730;DHT22;4904;49.152;11.004;2024-02-26T07:54:16;5.60;99.90
9730;DHT22;4904;49.152;11.004;2024-02-26T07:56:44;5.60;99.90
9730;DHT22;4904;49.152;11.004;2024-02-26T07:59:11;5.70;99.90
9730;DHT22;4904;49.152;11.004;2024-02-26T08:01:38;5.70;99.90
9730;DHT22;4904;49.152;11.004;2024-02-26T08:04:07;5.80;99.90
9730;DHT22;4904;49.152;11.004;2024-02-26T08:06:35;5.90;99.90
9730;DHT22;4904;49.152;11.004;2024-02-26T08:09:02;6.00;99.90
9730;DHT22;4904;49.152;11.004;2024-02-26T08:11:29;6.10;99.90
9730;DHT22;4904;49.152;11.004;2024-02-26T08:13:56;6.20;99.90
9730;DHT22;4904;49.152;11.004;2024-02-26T08:16:24;6.30;99.90
9730;DHT22;4904;49.152;11.004;2024-02-26T08:18:51;6.50;99.90
9730;DHT22;4904;49.152;11.004;2024-02-26T08:21:18;6.60;99.90
9730;DHT22;4904;49.152;11.004;2024-02-26T08:23:46;6.70;99.90
9730;DHT22;4904;49.152;11.004;2024-02-26T08:26:13;6.80;99.90
9730;DHT22;4904;49.152;11.004;2024-02-26T08:28:40;6.80;99.90
9730;DHT22;4904;49.152;11.004;2024-02-26T08:31:07;6.90;99.90
9730;DHT22;4904;49.152;11.004;2024-02-26T08:33:34;6.90;99.90
9730;DHT22;4904;49.152;11.004;2024-02-26T08:36:04;7.00;99.90
9730;DHT22;4904;49.152;11.004;2024-02-26T08:38:31;7.10;99.90
9730;DHT22;4904;49.152;11.004;2024-02-26T08:41:01;7.10;99.90
9730;DHT22;4904;49.152;11.004;2024-02-26T08:43:28;7.20;99.90
9730;DHT22;4904;49.152;11.004;2024-02-26T08:45:56;7.20;99.90
9730;DHT22;4904;49.152;11.004;2024-02-26T08:48:23;7.30;99.90
9730;DHT22;4904;49.152;11.004;2024-02-26T08:50:50;7.30;99.90
9730;DHT22;4904;49.152;11.004;2024-02-26T08:53:17;7.30;99.90
9730;DHT22;4904;49.152;11.004;2024-02-26T08:55:44;7.40;99.90
9730;DHT22;4904;49.152;11.004;2024-02-26T08:58:12;7.40;99.90
9730;DHT22;4904;49.152;11.004;2024-02-26T09:00:39;7.60;99.90
9730;DHT22;4904;49.152;11.004;2024-02-26T09:03:06;7.40;99.90
9730;DHT22;4904;49.152;11.004;2024-02-26T09:05:33;7.40;99.90
9730;DHT22;4904;49.152;11.004;2024-02-26T09:08:00;7.60;99.90
9730;DHT22;4904;49.152;11.004;2024-02-26T09:10:27;7.70;99.90
9730;DHT22;4904;49.152;11.004;2024-02-26T09:12:54;7.80;99.90
9730;DHT22;4904;49.152;11.004;2024-02-26T09:15:23;7.80;99.90
9730;DHT22;4904;49.152;11.004;2024-02-26T09:17:50;7.80;99.90
9730;DHT22;4904;49.152;11.004;2024-02-26T09:20:17;7.90;99.90
9730;DHT22;4904;49.152;11.004;2024-02-26T09:22:45;7.90;99.90
9730;DHT22;4904;49.152;11.004;2024-02-26T09:25:12;8.00;99.90
9730;DHT22;4904;49.152;11.004;2024-02-26T09:27:41;8.10;99.90
9730;DHT22;4904;49.152;11.004;2024-02-26T09:30:08;8.20;99.90
9730;DHT22;4904;49.152;11.004;2024-02-26T09:32:37;8.30;99.90
9730;DHT22;4904;49.152;11.004;2024-02-26T09:35:04;8.40;99.90
9730;DHT22;4904;49.152;11.004;2024-02-26T09:37:31;8.40;99.90
9730;DHT22;4904;49.152;11.004;2024-02-26T09:39:59;8.50;99.90
9730;DHT22;4904;49.152;11.004;2024-02-26T09:42:26;8.60;99.90
9730;DHT22;4904;49.152;11.004;2024-02-26T09:44:54;8.60;99.90
9730;DHT22;4904;49.152;11.004;2024-02-26T09:47:23;8.80;99.90
9730;DHT22;4904;49.152;11.004;2024-02-26T09:49:52;8.80;99.90
9730;DHT22;4904;49.152;11.004;2024-02-26T09:52:20;8.90;99.90
9730;DHT22;4904;49.152;11.004;2024-02-26T09:54:48;8.90;99.90
9730;DHT22;4904;49.152;11.004;2024-02-26T09:57:16;9.00;99.90
9730;DHT22;4904;49.152;11.004;2024-02-26T09:59:44;9.10;99.90
9730;DHT22;4904;49.152;11.004;2024-02-26T10:02:13;9.20;99.90
9730;DHT22;4904;49.152;11.004;2024-02-26T10:04:41;9.20;99.90
9730;DHT22;4904;49.152;11.004;2024-02-26T10:07:11;9.20;99.90
9730;DHT22;4904;49.152;11.004;2024-02-26T10:09:38;9.30;99.90
9730;DHT22;4904;49.152;11.004;2024-02-26T10:12:07;9.30;99.90
9730;DHT22;4904;49.152;11.004;2024-02-26T10:14:35;9.40;99.90
9730;DHT22;4904;49.152;11.004;2024-02-26T10:17:03;9.40;99.90
9730;DHT22;4904;49.152;11.004;2024-02-26T10:19:33;9.50;99.90
9730;DHT22;4904;49.152;11.004;2024-02-26T10:22:01;9.50;99.90
9730;DHT22;4904;49.152;11.004;2024-02-26T10:24:30;9.60;99.90
9730;DHT22;4904;49.152;11.004;2024-02-26T10:26:58;9.70;99.90
9730;DHT22;4904;49.152;11.004;2024-02-26T10:29:25;9.80;99.90
9730;DHT22;4904;49.152;11.004;2024-02-26T10:31:53;9.80;99.90
9730;DHT22;4904;49.152;11.004;2024-02-26T10:34:20;9.90;99.90
9730;DHT22;4904;49.152;11.004;2024-02-26T10:36:47;10.00;99.90
9730;DHT22;4904;49.152;11.004;2024-02-26T10:39:14;10.10;99.90
9730;DHT22;4904;49.152;11.004;2024-02-26T10:41:44;10.20;99.90
9730;DHT22;4904;49.152;11.004;2024-02-26T10:44:11;10.30;99.90
9730;DHT22;4904;49.152;11.004;2024-02-26T10:46:40;10.30;99.90
9730;DHT22;4904;49.152;11.004;2024-02-26T10:49:13;10.40;99.90
9730;DHT22;4904;49.152;11.004;2024-02-26T10:51:44;10.50;99.90
9730;DHT22;4904;49.152;11.004;2024-02-26T10:54:15;10.50;99.90
9730;DHT22;4904;49.152;11.004;2024-02-26T10:56:43;10.60;99.90
9730;DHT22;4904;49.152;11.004;2024-02-26T10:59:12;10.60;99.90
9730;DHT22;4904;49.152;11.004;2024-02-26T11:01:41;10.70;99.90
9730;DHT22;4904;49.152;11.004;2024-02-26T11:04:12;10.80;99.90
9730;DHT22;4904;49.152;11.004;2024-02-26T11:06:40;10.90;99.90
9730;DHT22;4904;49.152;11.004;2024-02-26T11:09:08;10.90;99.90
9730;DHT22;4904;49.152;11.004;2024-02-26T11:11:38;11.10;99.90
9730;DHT22;4904;49.152;11.004;2024-02-26T11:14:09;11.20;99.90
9730;DHT22;4904;49.152;11.004;2024-02-26T11:16:38;11.20;99.90
9730;DHT22;4904;49.152;11.004;2024-02-26T11:19:07;11.30;99.90
9730;DHT22;4904;49.152;11.004;2024-02-26T11:21:35;11.50;99.90
9730;DHT22;4904;49.152;11.004;2024-02-26T11:24:08;11.50;99.90
9730;DHT22;4904;49.152;11.004;2024-02-26T11:26:38;11.50;99.90
9730;DHT22;4904;49.152;11.004;2024-02-26T11:29:08;11.60;99.90
9730;DHT22;4904;49.152;11.004;2024-02-26T11:31:37;11.70;99.90
9730;DHT22;4904;49.152;11.004;2024-02-26T11:34:06;11.60;99.90
9730;DHT22;4904;49.152;11.004;2024-02-26T11:36:33;11.70;99.90
9730;DHT22;4904;49.152;11.004;2024-02-26T11:38:59;11.80;99.90
9730;DHT22;4904;49.152;11.004;2024-02-26T11:41:26;11.70;99.90
9730;DHT22;4904;49.152;11.004;2024-02-26T11:43:58;11.90;99.90
9730;DHT22;4904;49.152;11.004;2024-02-26T11:46:28;12.00;99.90
9730;DHT22;4904;49.152;11.004;2024-02-26T11:48:58;12.10;99.90
9730;DHT22;4904;49.152;11.004;2024-02-26T11:51:26;12.20;99.90
9730;DHT22;4904;49.152;11.004;2024-02-26T11:53:54;12.20;99.90
9730;DHT22;4904;49.152;11.004;2024-02-26T11:56:24;12.40;99.90
9730;DHT22;4904;49.152;11.004;2024-02-26T11:58:59;12.40;99.90
9730;DHT22;4904;49.152;11.004;2024-02-26T12:01:41;12.50;99.90
9730;DHT22;4904;49.152;11.004;2024-02-26T12:04:13;12.50;99.90
9730;DHT22;4904;49.152;11.004;2024-02-26T12:06:46;12.60;99.90
9730;DHT22;4904;49.152;11.004;2024-02-26T12:09:31;12.70;99.90
9730;DHT22;4904;49.152;11.004;2024-02-26T12:12:00;12.80;99.90
9730;DHT22;4904;49.152;11.004;2024-02-26T12:14:28;12.90;99.90
9730;DHT22;4904;49.152;11.004;2024-02-26T12:16:56;13.00;99.90
9730;DHT22;4904;49.152;11.004;2024-02-26T12:19:24;13.00;99.90
9730;DHT22;4904;49.152;11.004;2024-02-26T12:21:52;13.00;99.90
9730;DHT22;4904;49.152;11.004;2024-02-26T12:24:21;12.90;99.90
9730;DHT22;4904;49.152;11.004;2024-02-26T12:26:48;13.00;99.90
9730;DHT22;4904;49.152;11.004;2024-02-26T12:29:14;13.00;99.90
9730;DHT22;4904;49.152;11.004;2024-02-26T12:31:42;13.00;99.90
9730;DHT22;4904;49.152;11.004;2024-02-26T12:34:10;13.00;99.90
9730;DHT22;4904;49.152;11.004;2024-02-26T12:36:37;13.00;99.90
9730;DHT22;4904;49.152;11.004;2024-02-26T12:39:06;13.10;99.90
9730;DHT22;4904;49.152;11.004;2024-02-26T12:41:35;13.10;99.90
9730;DHT22;4904;49.152;11.004;2024-02-26T12:44:01;13.20;99.90
9730;DHT22;4904;49.152;11.004;2024-02-26T12:46:29;13.30;99.90
9730;DHT22;4904;49.152;11.004;2024-02-26T12:48:56;13.30;99.90
9730;DHT22;4904;49.152;11.004;2024-02-26T12:51:26;13.30;99.90
9730;DHT22;4904;49.152;11.004;2024-02-26T12:53:54;13.40;99.90
9730;DHT22;4904;49.152;11.004;2024-02-26T12:56:22;13.50;99.90
9730;DHT22;4904;49.152;11.004;2024-02-26T12:58:50;13.40;99.90
9730;DHT22;4904;49.152;11.004;2024-02-26T13:01:21;13.50;99.90
9730;DHT22;4904;49.152;11.004;2024-02-26T13:03:49;13.60;99.90
9730;DHT22;4904;49.152;11.004;2024-02-26T13:06:17;13.70;99.90
9730;DHT22;4904;49.152;11.004;2024-02-26T13:08:46;13.70;99.90
9730;DHT22;4904;49.152;11.004;2024-02-26T13:11:13;13.80;99.90
9730;DHT22;4904;49.152;11.004;2024-02-26T13:13:40;13.70;99.90
9730;DHT22;4904;49.152;11.004;2024-02-26T13:16:09;13.70;99.90
9730;DHT22;4904;49.152;11.004;2024-02-26T13:18:37;13.70;99.90
9730;DHT22;4904;49.152;11.004;2024-02-26T13:21:11;13.70;99.90
9730;DHT22;4904;49.152;11.004;2024-02-26T13:23:39;13.60;99.90
9730;DHT22;4904;49.152;11.004;2024-02-26T13:26:07;13.60;99.90
9730;DHT22;4904;49.152;11.004;2024-02-26T13:28:35;13.60;99.90
9730;DHT22;4904;49.152;11.004;2024-02-26T13:31:02;13.50;99.90
9730;DHT22;4904;49.152;11.004;2024-02-26T13:33:31;13.40;99.90
9730;DHT22;4904;49.152;11.004;2024-02-26T13:35:59;13.30;99.90
9730;DHT22;4904;49.152;11.004;2024-02-26T13:38:27;13.30;99.90
9730;DHT22;4904;49.152;11.004;2024-02-26T13:40:55;13.30;99.90
9730;DHT22;4904;49.152;11.004;2024-02-26T13:43:23;13.30;99.90
9730;DHT22;4904;49.152;11.004;2024-02-26T13:45:50;13.30;99.90
9730;DHT22;4904;49.152;11.004;2024-02-26T13:48:17;13.30;99.90
9730;DHT22;4904;49.152;11.004;2024-02-26T13:50:44;13.30;99.90
9730;DHT22;4904;49.152;11.004;2024-02-26T13:53:12;13.40;99.90
9730;DHT22;4904;49.152;11.004;2024-02-26T13:55:40;13.30;99.90
9730;DHT22;4904;49.152;11.004;2024-02-26T13:58:08;13.40;99.90
9730;DHT22;4904;49.152;11.004;2024-02-26T14:00:36;13.40;99.90
9730;DHT22;4904;49.152;11.004;2024-02-26T14:03:03;13.40;99.90
9730;DHT22;4904;49.152;11.004;2024-02-26T14:05:31;13.40;99.90
9730;DHT22;4904;49.152;11.004;2024-02-26T14:07:58;13.50;99.90
9730;DHT22;4904;49.152;11.004;2024-02-26T14:10:25;13.40;99.90
9730;DHT22;4904;49.152;11.004;2024-02-26T14:12:52;13.30;99.90
9730;DHT22;4904;49.152;11.004;2024-02-26T14:15:19;13.30;99.90
9730;DHT22;4904;49.152;11.004;2024-02-26T14:17:47;13.20;99.90
9730;DHT22;4904;49.152;11.004;2024-02-26T14:20:19;13.20;99.90
9730;DHT22;4904;49.152;11.004;2024-02-26T14:22:46;12.40;99.90
9730;DHT22;4904;49.152;11.004;2024-02-26T14:25:13;13.10;99.90
9730;DHT22;4904;49.152;11.004;2024-02-26T14:27:40;13.00;99.90
9730;DHT22;4904;49.152;11.004;2024-02-26T14:30:08;13.00;99.90
9730;DHT22;4904;49.152;11.004;2024-02-26T14:32:35;12.90;99.90
9730;DHT22;4904;49.152;11.004;2024-02-26T14:35:05;12.90;99.90
9730;DHT22;4904;49.152;11.004;2024-02-26T14:37:33;12.90;99.90
9730;DHT22;4904;49.152;11.004;2024-02-26T14:40:00;12.90;99.90
9730;DHT22;4904;49.152;11.004;2024-02-26T14:42:28;12.80;99.90
9730;DHT22;4904;49.152;11.004;2024-02-26T14:44:55;12.80;99.90
9730;DHT22;4904;49.152;11.004;2024-02-26T14:47:22;12.70;99.90
9730;DHT22;4904;49.152;11.004;2024-02-26T14:49:49;12.70;99.90
9730;DHT22;4904;49.152;11.004;2024-02-26T14:52:18;12.70;99.90
9730;DHT22;4904;49.152;11.004;2024-02-26T14:54:45;12.70;99.90
9730;DHT22;4904;49.152;11.004;2024-02-26T14:57:12;12.70;99.90
9730;DHT22;4904;49.152;11.004;2024-02-26T14:59:40;12.60;99.90
9730;DHT22;4904;49.152;11.004;2024-02-26T15:02:07;12.60;99.90
9730;DHT22;4904;49.152;11.004;2024-02-26T15:04:36;12.60;99.90
9730;DHT22;4904;49.152;11.004;2024-02-26T15:07:03;12.50;99.90
9730;DHT22;4904;49.152;11.004;2024-02-26T15:09:31;12.50;99.90
9730;DHT22;4904;49.152;11.004;2024-02-26T15:12:01;12.50;99.90
9730;DHT22;4904;49.152;11.004;2024-02-26T15:14:28;12.40;99.90
9730;DHT22;4904;49.152;11.004;2024-02-26T15:16:55;12.40;99.90
9730;DHT22;4904;49.152;11.004;2024-02-26T15:19:22;12.40;99.90
9730;DHT22;4904;49.152;11.004;2024-02-26T15:21:49;12.30;99.90
9730;DHT22;4904;49.152;11.004;2024-02-26T15:24:16;12.30;99.90
9730;DHT22;4904;49.152;11.004;2024-02-26T15:26:45;12.30;99.90
9730;DHT22;4904;49.152;11.004;2024-02-26T15:29:12;12.30;99.90
9730;DHT22;4904;49.152;11.004;2024-02-26T15:31:39;12.30;99.90
9730;DHT22;4904;49.152;11.004;2024-02-26T15:34:06;12.30;99.90
9730;DHT22;4904;49.152;11.004;2024-02-26T15:36:34;12.20;99.90
9730;DHT22;4904;49.152;11.004;2024-02-26T15:39:01;12.20;99.90
9730;DHT22;4904;49.152;11.004;2024-02-26T15:41:28;12.20;99.90
9730;DHT22;4904;49.152;11.004;2024-02-26T15:43:57;12.10;99.90
9730;DHT22;4904;49.152;11.004;2024-02-26T15:46:25;12.10;99.90
9730;DHT22;4904;49.152;11.004;2024-02-26T15:48:53;12.10;99.90
9730;DHT22;4904;49.152;11.004;2024-02-26T15:51:20;12.20;99.90
9730;DHT22;4904;49.152;11.004;2024-02-26T15:53:48;12.10;99.90
9730;DHT22;4904;49.152;11.004;2024-02-26T15:56:15;12.00;99.90
9730;DHT22;4904;49.152;11.004;2024-02-26T15:58:42;12.00;99.90